createdAt,value
2019-02-16T00:00:03.718Z,26.76
2019-02-16T00:01:03.672Z,26.37
2019-02-16T00:02:03.627Z,26.66
2019-02-16T00:03:03.583Z,26.48
2019-02-16T00:04:03.537Z,26.46
2019-02-16T00:05:03.491Z,26.46
2019-02-16T00:06:03.450Z,26.39
2019-02-16T00:07:03.402Z,26.48
2019-02-16T00:08:03.359Z,26.46
2019-02-16T00:09:03.311Z,26.48
2019-02-16T00:10:03.267Z,26.66
2019-02-16T00:11:03.220Z,26.39
2019-02-16T00:12:03.179Z,26.37
2019-02-16T00:13:03.130Z,26.46
2019-02-16T00:14:03.087Z,26.39
2019-02-16T00:15:03.040Z,26.66
2019-02-16T00:16:02.996Z,26.39
2019-02-16T00:17:02.950Z,26.39
2019-02-16T00:18:02.955Z,26.48
2019-02-16T00:19:02.860Z,26.57
2019-02-16T00:20:02.815Z,26.57
2019-02-16T00:21:04.277Z,26.76
2019-02-16T00:22:02.726Z,26.77
2019-02-16T00:23:02.679Z,26.77
2019-02-16T00:24:02.634Z,26.57
2019-02-16T00:25:02.590Z,26.56
2019-02-16T00:26:02.543Z,26.56
2019-02-16T00:27:02.499Z,26.57
2019-02-16T00:28:02.454Z,26.56
2019-02-16T00:29:02.409Z,26.57
2019-02-16T00:30:02.367Z,26.67
2019-02-16T00:31:02.319Z,26.57
2019-02-16T00:32:02.273Z,26.67
2019-02-16T00:33:02.229Z,26.56
2019-02-16T00:34:02.182Z,26.46
2019-02-16T00:35:02.140Z,26.48
2019-02-16T00:36:02.094Z,26.48
2019-02-16T00:37:02.047Z,26.77
2019-02-16T00:38:02.002Z,26.48
2019-02-16T00:39:02.007Z,26.67
2019-02-16T00:40:01.913Z,26.67
2019-02-16T00:41:01.867Z,26.48
2019-02-16T00:42:01.822Z,26.29
2019-02-16T00:43:01.777Z,25.99
2019-02-16T00:44:01.732Z,26.29
2019-02-16T00:45:01.686Z,26.67
2019-02-16T00:46:01.644Z,26.29
2019-02-16T00:47:01.597Z,26.19
2019-02-16T00:48:01.553Z,26.29
2019-02-16T00:49:01.504Z,26.57
2019-02-16T00:50:01.461Z,26.29
2019-02-16T00:51:01.415Z,26.19
2019-02-16T00:52:01.370Z,26.09
2019-02-16T00:53:01.325Z,26.09
2019-02-16T00:54:01.280Z,26.29
2019-02-16T00:55:01.235Z,26.19
2019-02-16T00:56:01.189Z,26.48
2019-02-16T00:57:01.146Z,26.19
2019-02-16T00:58:01.101Z,26.09
2019-02-16T00:59:01.065Z,26.19
2019-02-16T01:00:01.012Z,26.48
2019-02-16T01:01:00.964Z,26.09
2019-02-16T01:02:00.918Z,26.19
2019-02-16T01:03:00.877Z,26.18
2019-02-16T01:04:00.829Z,26.48
2019-02-16T01:05:00.787Z,26.08
2019-02-16T01:06:00.738Z,26.67
2019-02-16T01:07:00.693Z,26.77
2019-02-16T01:08:00.648Z,26.09
2019-02-16T01:09:00.602Z,26.09
2019-02-16T01:10:00.558Z,26.66
2019-02-16T01:11:00.516Z,26.09
2019-02-16T01:12:00.467Z,26.09
2019-02-16T01:13:00.421Z,26.18
2019-02-16T01:14:00.377Z,26.87
2019-02-16T01:15:00.331Z,26.48
2019-02-16T01:16:00.287Z,26.57
2019-02-16T01:17:00.241Z,26.19
2019-02-16T01:18:00.196Z,26.87
2019-02-16T01:19:00.162Z,26.19
2019-02-16T01:20:00.312Z,26.77
2019-02-16T01:21:00.060Z,26.77
2019-02-16T01:22:00.017Z,26.39
2019-02-16T01:22:59.971Z,26.56
2019-02-16T01:23:59.976Z,26.57
2019-02-16T01:24:59.880Z,26.48
2019-02-16T01:25:59.837Z,26.57
2019-02-16T01:26:59.790Z,26.77
2019-02-16T01:27:59.746Z,26.67
2019-02-16T01:28:59.699Z,26.67
2019-02-16T01:29:59.653Z,26.48
2019-02-16T01:30:59.608Z,26.67
2019-02-16T01:31:59.565Z,26.67
2019-02-16T01:32:59.519Z,26.48
2019-02-16T01:33:59.477Z,26.77
2019-02-16T01:34:59.429Z,26.48
2019-02-16T01:35:59.383Z,26.29
2019-02-16T01:36:59.340Z,26.39
2019-02-16T01:37:59.293Z,26.39
2019-02-16T01:38:59.248Z,26.67
2019-02-16T01:39:59.207Z,26.67
2019-02-16T01:40:59.157Z,26.67
2019-02-16T01:41:59.113Z,26.57
2019-02-16T01:42:59.072Z,26.67
2019-02-16T01:43:59.023Z,25.81
2019-02-16T01:44:58.977Z,26.19
2019-02-16T01:45:58.982Z,26.57
2019-02-16T01:46:58.887Z,26.46
2019-02-16T01:47:58.895Z,26.57
2019-02-16T01:48:58.797Z,26.77
2019-02-16T01:49:58.752Z,26.77
2019-02-16T01:50:58.707Z,26.57
2019-02-16T01:51:58.662Z,26.19
2019-02-16T01:52:58.616Z,26.39
2019-02-16T01:53:58.571Z,26.39
2019-02-16T01:54:58.526Z,26.39
2019-02-16T01:55:58.481Z,26.19
2019-02-16T01:56:58.438Z,26.48
2019-02-16T01:57:58.390Z,26.29
2019-02-16T01:58:58.344Z,26.39
2019-02-16T01:59:58.301Z,26.29
2019-02-16T02:00:58.255Z,26.39
2019-02-16T02:01:58.210Z,26.39
2019-02-16T02:02:58.165Z,26.29
2019-02-16T02:03:58.121Z,26.19
2019-02-16T02:04:58.075Z,26.19
2019-02-16T02:05:58.029Z,26.29
2019-02-16T02:06:57.989Z,26.39
2019-02-16T02:07:58.040Z,26.19
2019-02-16T02:08:57.894Z,26.19
2019-02-16T02:09:57.848Z,26.19
2019-02-16T02:10:57.804Z,26.29
2019-02-16T02:11:57.759Z,26.19
2019-02-16T02:12:57.714Z,26.19
2019-02-16T02:13:57.678Z,26.19
2019-02-16T02:14:57.624Z,26.09
2019-02-16T02:15:57.579Z,25.90
2019-02-16T02:16:57.538Z,25.90
2019-02-16T02:17:57.488Z,26.09
2019-02-16T02:18:57.444Z,26.09
2019-02-16T02:19:57.397Z,25.99
2019-02-16T02:20:57.353Z,25.99
2019-02-16T02:21:57.308Z,25.99
2019-02-16T02:22:57.263Z,25.99
2019-02-16T02:23:57.219Z,26.09
2019-02-16T02:24:57.173Z,25.99
2019-02-16T02:25:57.131Z,26.09
2019-02-16T02:26:57.083Z,26.19
2019-02-16T02:27:57.094Z,26.19
2019-02-16T02:28:57.140Z,25.99
2019-02-16T02:29:57.096Z,26.19
2019-02-16T02:30:57.219Z,26.09
2019-02-16T02:31:56.858Z,26.29
2019-02-16T02:32:56.815Z,26.09
2019-02-16T02:33:56.767Z,26.09
2019-02-16T02:34:56.721Z,26.09
2019-02-16T02:35:56.678Z,25.99
2019-02-16T02:36:56.636Z,26.09
2019-02-16T02:37:56.589Z,26.19
2019-02-16T02:38:56.542Z,25.99
2019-02-16T02:39:56.497Z,26.19
2019-02-16T02:40:56.450Z,26.19
2019-02-16T02:41:56.406Z,25.99
2019-02-16T02:42:56.360Z,26.19
2019-02-16T02:43:56.315Z,25.99
2019-02-16T02:44:56.270Z,26.09
2019-02-16T02:45:56.225Z,26.09
2019-02-16T02:46:56.198Z,26.19
2019-02-16T02:47:56.135Z,26.29
2019-02-16T02:48:56.122Z,26.09
2019-02-16T02:49:56.044Z,25.90
2019-02-16T02:50:56.007Z,26.09
2019-02-16T02:51:55.955Z,25.99
2019-02-16T02:52:56.644Z,26.09
2019-02-16T02:53:55.864Z,26.29
2019-02-16T02:54:55.819Z,25.99
2019-02-16T02:55:55.775Z,26.29
2019-02-16T02:56:55.727Z,25.99
2019-02-16T02:57:55.684Z,25.81
2019-02-16T02:58:55.638Z,25.90
2019-02-16T02:59:55.613Z,26.09
2019-02-16T03:00:55.548Z,26.19
2019-02-16T03:01:55.509Z,26.29
2019-02-16T03:02:55.460Z,25.71
2019-02-16T03:03:55.414Z,25.71
2019-02-16T03:04:55.367Z,26.09
2019-02-16T03:05:55.322Z,25.61
2019-02-16T03:06:55.278Z,25.71
2019-02-16T03:07:55.233Z,25.61
2019-02-16T03:08:55.188Z,25.71
2019-02-16T03:09:55.142Z,25.61
2019-02-16T03:10:55.097Z,25.71
2019-02-16T03:11:55.053Z,25.71
2019-02-16T03:12:55.006Z,25.71
2019-02-16T03:13:54.965Z,25.81
2019-02-16T03:14:54.917Z,25.71
2019-02-16T03:15:54.874Z,25.71
2019-02-16T03:16:54.839Z,25.71
2019-02-16T03:17:54.781Z,25.71
2019-02-16T03:18:54.736Z,25.90
2019-02-16T03:19:54.692Z,25.81
2019-02-16T03:20:54.646Z,25.81
2019-02-16T03:22:02.494Z,25.81
2019-02-16T03:22:54.556Z,25.90
2019-02-16T03:23:54.528Z,25.71
2019-02-16T03:24:54.465Z,25.90
2019-02-16T03:25:54.419Z,25.71
2019-02-16T03:26:54.376Z,25.90
2019-02-16T03:27:54.330Z,25.71
2019-02-16T03:28:54.285Z,25.81
2019-02-16T03:29:54.242Z,25.71
2019-02-16T03:30:54.233Z,25.81
2019-02-16T03:31:54.155Z,25.81
2019-02-16T03:32:54.106Z,25.90
2019-02-16T03:33:54.093Z,25.81
2019-02-16T03:34:54.015Z,25.90
2019-02-16T03:35:53.970Z,25.71
2019-02-16T03:36:53.928Z,25.81
2019-02-16T03:37:53.980Z,25.71
2019-02-16T03:38:53.835Z,25.81
2019-02-16T03:39:53.798Z,25.90
2019-02-16T03:40:53.743Z,25.90
2019-02-16T03:41:53.700Z,25.71
2019-02-16T03:42:53.653Z,25.90
2019-02-16T03:43:53.610Z,25.71
2019-02-16T03:44:53.563Z,25.61
2019-02-16T03:45:53.518Z,25.81
2019-02-16T03:46:53.475Z,25.90
2019-02-16T03:47:53.429Z,25.90
2019-02-16T03:48:53.383Z,25.81
2019-02-16T03:49:53.337Z,25.81
2019-02-16T03:50:53.292Z,25.81
2019-02-16T03:51:53.248Z,25.61
2019-02-16T03:52:53.205Z,25.99
2019-02-16T03:53:53.157Z,25.99
2019-02-16T03:54:53.115Z,25.90
2019-02-16T03:55:53.067Z,25.90
2019-02-16T03:56:53.021Z,25.71
2019-02-16T03:57:52.976Z,25.90
2019-02-16T03:58:53.032Z,25.61
2019-02-16T03:59:52.887Z,25.61
2019-02-16T04:00:52.841Z,25.71
2019-02-16T04:01:52.797Z,25.71
2019-02-16T04:02:52.752Z,25.71
2019-02-16T04:03:52.706Z,25.42
2019-02-16T04:04:52.660Z,25.32
2019-02-16T04:05:52.616Z,25.42
2019-02-16T04:06:52.571Z,25.51
2019-02-16T04:07:52.526Z,25.42
2019-02-16T04:08:52.479Z,25.42
2019-02-16T04:09:52.435Z,25.32
2019-02-16T04:10:52.391Z,25.42
2019-02-16T04:11:52.345Z,25.32
2019-02-16T04:12:52.301Z,25.42
2019-02-16T04:13:52.255Z,25.42
2019-02-16T04:14:52.211Z,25.32
2019-02-16T04:15:52.172Z,25.51
2019-02-16T04:16:52.119Z,25.51
2019-02-16T04:17:52.075Z,25.32
2019-02-16T04:18:52.030Z,25.51
2019-02-16T04:19:52.035Z,25.42
2019-02-16T04:20:51.989Z,25.42
2019-02-16T04:21:51.900Z,25.32
2019-02-16T04:22:51.849Z,25.42
2019-02-16T04:23:51.804Z,25.51
2019-02-16T04:24:51.760Z,25.51
2019-02-16T04:25:51.714Z,25.51
2019-02-16T04:26:51.668Z,25.32
2019-02-16T04:27:51.625Z,25.51
2019-02-16T04:28:51.579Z,25.51
2019-02-16T04:29:51.544Z,25.51
2019-02-16T04:30:51.489Z,25.51
2019-02-16T04:31:51.444Z,25.51
2019-02-16T04:32:51.401Z,25.51
2019-02-16T04:33:51.352Z,25.51
2019-02-16T04:34:51.309Z,25.51
2019-02-16T04:35:51.265Z,25.42
2019-02-16T04:36:51.217Z,25.32
2019-02-16T04:37:51.173Z,25.51
2019-02-16T04:38:51.129Z,25.61
2019-02-16T04:39:51.082Z,25.51
2019-02-16T04:40:51.043Z,25.42
2019-02-16T04:41:51.042Z,25.42
2019-02-16T04:42:50.997Z,25.32
2019-02-16T04:43:50.903Z,25.71
2019-02-16T04:44:50.857Z,25.61
2019-02-16T04:45:50.813Z,25.42
2019-02-16T04:46:50.767Z,25.42
2019-02-16T04:47:50.723Z,25.71
2019-02-16T04:48:50.676Z,25.42
2019-02-16T04:49:50.631Z,25.61
2019-02-16T04:50:50.585Z,25.61
2019-02-16T04:51:50.543Z,25.51
2019-02-16T04:52:50.497Z,25.71
2019-02-16T04:53:50.465Z,25.81
2019-02-16T04:54:50.406Z,25.61
2019-02-16T04:55:50.367Z,25.71
2019-02-16T04:56:50.317Z,25.71
2019-02-16T04:57:50.271Z,25.71
2019-02-16T04:58:50.227Z,25.71
2019-02-16T04:59:50.185Z,25.71
2019-02-16T05:00:50.138Z,25.71
2019-02-16T05:01:50.091Z,25.51
2019-02-16T05:02:50.047Z,25.51
2019-02-16T05:03:50.002Z,25.71
2019-02-16T05:04:50.010Z,25.81
2019-02-16T05:05:49.910Z,25.61
2019-02-16T05:06:49.930Z,25.61
2019-02-16T05:07:49.822Z,25.51
2019-02-16T05:08:49.782Z,25.51
2019-02-16T05:09:49.728Z,25.42
2019-02-16T05:10:49.685Z,25.51
2019-02-16T05:11:49.640Z,25.42
2019-02-16T05:12:49.594Z,25.51
2019-02-16T05:13:49.550Z,25.42
2019-02-16T05:14:49.505Z,25.51
2019-02-16T05:15:49.471Z,25.51
2019-02-16T05:16:49.416Z,25.42
2019-02-16T05:17:49.579Z,25.51
2019-02-16T05:18:49.324Z,25.42
2019-02-16T05:19:49.279Z,25.61
2019-02-16T05:20:49.234Z,25.51
2019-02-16T05:21:49.193Z,25.61
2019-02-16T05:22:49.146Z,25.61
2019-02-16T05:23:49.099Z,25.51
2019-02-16T05:24:49.055Z,25.51
2019-02-16T05:25:50.985Z,25.51
2019-02-16T05:26:48.969Z,25.51
2019-02-16T05:27:48.968Z,25.61
2019-02-16T05:28:48.873Z,25.61
2019-02-16T05:29:49.050Z,25.51
2019-02-16T05:30:48.783Z,25.51
2019-02-16T05:31:48.740Z,25.32
2019-02-16T05:32:48.693Z,25.32
2019-02-16T05:33:48.652Z,25.32
2019-02-16T05:34:48.603Z,25.51
2019-02-16T05:35:48.568Z,25.42
2019-02-16T05:36:48.513Z,25.23
2019-02-16T05:37:48.469Z,25.43
2019-02-16T05:38:48.423Z,25.42
2019-02-16T05:39:48.384Z,25.42
2019-02-16T05:40:48.332Z,25.42
2019-02-16T05:41:48.288Z,25.32
2019-02-16T05:42:48.249Z,25.42
2019-02-16T05:43:48.232Z,25.42
2019-02-16T05:44:48.153Z,25.42
2019-02-16T05:45:48.144Z,25.42
2019-02-16T05:46:48.134Z,25.42
2019-02-16T05:47:48.106Z,25.51
2019-02-16T05:48:48.197Z,25.34
2019-02-16T05:49:47.927Z,25.51
2019-02-16T05:50:48.186Z,25.51
2019-02-16T05:51:48.321Z,25.51
2019-02-16T05:52:53.988Z,25.32
2019-02-16T05:53:47.747Z,25.32
2019-02-16T05:54:47.702Z,25.42
2019-02-16T05:55:47.657Z,25.32
2019-02-16T05:56:47.611Z,25.42
2019-02-16T05:57:47.570Z,25.34
2019-02-16T05:58:47.572Z,25.23
2019-02-16T05:59:47.477Z,25.42
2019-02-16T06:00:47.431Z,25.34
2019-02-16T06:01:53.770Z,25.23
2019-02-16T06:02:47.342Z,25.14
2019-02-16T06:03:47.299Z,25.14
2019-02-16T06:04:47.251Z,25.42
2019-02-16T06:05:47.206Z,25.04
2019-02-16T06:06:47.162Z,25.14
2019-02-16T06:07:47.128Z,25.03
2019-02-16T06:08:47.078Z,25.13
2019-02-16T06:09:47.026Z,25.03
2019-02-16T06:10:47.046Z,25.03
2019-02-16T06:11:46.936Z,25.03
2019-02-16T06:12:46.891Z,24.65
2019-02-16T06:13:46.847Z,25.04
2019-02-16T06:14:46.802Z,25.04
2019-02-16T06:15:46.756Z,24.95
2019-02-16T06:16:46.710Z,24.85
2019-02-16T06:17:46.665Z,25.03
2019-02-16T06:18:46.621Z,24.84
2019-02-16T06:19:46.576Z,24.93
2019-02-16T06:20:46.530Z,24.84
2019-02-16T06:21:46.486Z,24.76
2019-02-16T06:22:46.492Z,24.84
2019-02-16T06:23:46.397Z,24.95
2019-02-16T06:24:46.353Z,24.85
2019-02-16T06:25:46.308Z,24.95
2019-02-16T06:26:46.269Z,24.95
2019-02-16T06:27:46.216Z,24.95
2019-02-16T06:28:46.170Z,24.95
2019-02-16T06:29:46.125Z,24.85
2019-02-16T06:30:46.118Z,25.04
2019-02-16T06:31:46.036Z,25.04
2019-02-16T06:32:45.990Z,25.04
2019-02-16T06:33:46.115Z,25.04
2019-02-16T06:34:45.951Z,25.04
2019-02-16T06:35:45.861Z,24.85
2019-02-16T06:36:45.809Z,25.14
2019-02-16T06:37:45.765Z,25.14
2019-02-16T06:38:45.719Z,25.14
2019-02-16T06:39:45.675Z,25.04
2019-02-16T06:40:45.629Z,25.04
2019-02-16T06:41:45.584Z,25.04
2019-02-16T06:42:45.542Z,25.14
2019-02-16T06:43:45.496Z,25.04
2019-02-16T06:44:45.451Z,25.14
2019-02-16T06:45:45.407Z,24.95
2019-02-16T06:46:45.363Z,24.46
2019-02-16T06:47:45.315Z,24.46
2019-02-16T06:48:45.272Z,24.66
2019-02-16T06:49:45.224Z,24.66
2019-02-16T06:50:45.180Z,24.85
2019-02-16T06:51:45.185Z,24.66
2019-02-16T06:52:45.089Z,24.66
2019-02-16T06:53:45.045Z,24.66
2019-02-16T06:54:44.999Z,24.76
2019-02-16T06:55:45.005Z,24.66
2019-02-16T06:56:44.910Z,24.76
2019-02-16T06:57:44.864Z,24.56
2019-02-16T06:58:44.822Z,24.95
2019-02-16T06:59:44.790Z,24.85
2019-02-16T07:00:44.730Z,24.76
2019-02-16T07:01:45.003Z,24.56
2019-02-16T07:02:44.640Z,24.66
2019-02-16T07:03:44.594Z,24.66
2019-02-16T07:04:44.549Z,24.76
2019-02-16T07:05:44.514Z,24.85
2019-02-16T07:06:44.558Z,24.85
2019-02-16T07:07:44.417Z,24.76
2019-02-16T07:08:44.406Z,25.04
2019-02-16T07:09:44.325Z,24.95
2019-02-16T07:10:44.279Z,24.67
2019-02-16T07:11:44.236Z,24.67
2019-02-16T07:12:44.192Z,24.48
2019-02-16T07:13:44.144Z,24.48
2019-02-16T07:14:44.101Z,23.80
2019-02-16T07:15:44.060Z,24.29
2019-02-16T07:16:44.010Z,23.81
2019-02-16T07:17:44.017Z,23.71
2019-02-16T07:18:44.026Z,23.52
2019-02-16T07:19:43.876Z,23.81
2019-02-16T07:20:43.833Z,23.61
2019-02-16T07:21:43.787Z,23.52
2019-02-16T07:22:43.743Z,23.13
2019-02-16T07:23:43.709Z,23.24
2019-02-16T07:24:43.652Z,23.05
2019-02-16T07:25:43.608Z,23.33
2019-02-16T07:26:43.563Z,23.14
2019-02-16T07:27:43.519Z,22.96
2019-02-16T07:28:43.473Z,22.96
2019-02-16T07:29:43.429Z,22.77
2019-02-16T07:30:43.385Z,22.38
2019-02-16T07:31:43.346Z,22.48
2019-02-16T07:32:43.295Z,22.67
2019-02-16T07:33:43.254Z,22.86
2019-02-16T07:34:43.210Z,22.49
2019-02-16T07:35:43.162Z,22.39
2019-02-16T07:36:43.123Z,22.20
2019-02-16T07:37:43.124Z,22.10
2019-02-16T07:38:43.079Z,22.20
2019-02-16T07:39:43.134Z,22.39
2019-02-16T07:40:43.140Z,22.02
2019-02-16T07:41:42.896Z,22.11
2019-02-16T07:42:42.852Z,21.72
2019-02-16T07:43:42.808Z,21.82
2019-02-16T07:44:42.762Z,22.02
2019-02-16T07:45:42.719Z,21.92
2019-02-16T07:46:42.675Z,22.02
2019-02-16T07:47:42.633Z,21.82
2019-02-16T07:48:42.588Z,21.43
2019-02-16T07:49:42.544Z,21.53
2019-02-16T07:50:42.499Z,21.33
2019-02-16T07:51:42.454Z,21.34
2019-02-16T07:52:42.410Z,21.24
2019-02-16T07:53:42.365Z,21.25
2019-02-16T07:54:42.322Z,21.44
2019-02-16T07:55:42.279Z,21.24
2019-02-16T07:56:42.234Z,21.24
2019-02-16T07:57:42.190Z,21.15
2019-02-16T07:58:42.147Z,21.34
2019-02-16T07:59:42.103Z,21.05
2019-02-16T08:00:42.059Z,21.44
2019-02-16T08:01:42.014Z,21.25
2019-02-16T08:02:41.971Z,21.25
2019-02-16T08:03:41.928Z,21.34
2019-02-16T08:04:41.883Z,21.34
2019-02-16T08:05:41.839Z,21.25
2019-02-16T08:06:41.797Z,21.44
2019-02-16T08:07:42.906Z,21.34
2019-02-16T08:08:41.728Z,21.64
2019-02-16T08:09:41.665Z,21.64
2019-02-16T08:10:41.622Z,21.15
2019-02-16T08:11:41.578Z,20.96
2019-02-16T08:12:41.534Z,20.86
2019-02-16T08:13:41.492Z,20.76
2019-02-16T08:14:41.446Z,20.96
2019-02-16T08:15:41.404Z,21.05
2019-02-16T08:16:41.360Z,21.05
2019-02-16T08:17:41.315Z,21.05
2019-02-16T08:18:41.273Z,21.15
2019-02-16T08:19:41.230Z,20.97
2019-02-16T08:20:41.185Z,20.96
2019-02-16T08:21:41.142Z,20.87
2019-02-16T08:22:41.099Z,20.97
2019-02-16T08:23:41.058Z,20.48
2019-02-16T08:24:41.019Z,20.48
2019-02-16T08:25:40.968Z,20.48
2019-02-16T08:26:40.975Z,20.97
2019-02-16T08:27:40.882Z,20.96
2019-02-16T08:28:40.849Z,20.96
2019-02-16T08:29:40.794Z,20.87
2019-02-16T08:30:40.751Z,21.06
2019-02-16T08:31:40.708Z,20.86
2019-02-16T08:32:40.664Z,20.58
2019-02-16T08:33:40.676Z,20.48
2019-02-16T08:34:40.583Z,20.58
2019-02-16T08:35:40.533Z,20.48
2019-02-16T08:36:40.494Z,20.97
2019-02-16T08:37:40.447Z,20.58
2019-02-16T08:38:40.414Z,20.47
2019-02-16T08:39:40.361Z,20.67
2019-02-16T08:40:40.317Z,21.16
2019-02-16T08:41:40.277Z,20.97
2019-02-16T08:42:40.231Z,20.97
2019-02-16T08:43:40.194Z,20.86
2019-02-16T08:44:40.144Z,21.25
2019-02-16T08:45:40.100Z,21.44
2019-02-16T08:46:40.058Z,20.67
2019-02-16T08:47:40.015Z,21.05
2019-02-16T08:48:39.972Z,20.96
2019-02-16T08:49:39.978Z,20.67
2019-02-16T08:50:39.890Z,20.67
2019-02-16T08:51:39.842Z,20.96
2019-02-16T08:52:39.797Z,20.67
2019-02-16T08:53:39.755Z,20.96
2019-02-16T08:54:39.713Z,20.96
2019-02-16T08:55:39.669Z,21.34
2019-02-16T08:56:39.625Z,20.86
2019-02-16T08:57:39.580Z,21.05
2019-02-16T08:58:39.538Z,20.96
2019-02-16T08:59:39.496Z,21.15
2019-02-16T09:00:39.452Z,21.15
2019-02-16T09:01:39.409Z,21.05
2019-02-16T09:02:39.365Z,21.05
2019-02-16T09:03:39.323Z,21.05
2019-02-16T09:04:39.279Z,21.05
2019-02-16T09:05:39.239Z,21.15
2019-02-16T09:06:39.195Z,20.85
2019-02-16T09:07:39.149Z,21.14
2019-02-16T09:08:39.106Z,20.96
2019-02-16T09:09:39.062Z,21.43
2019-02-16T09:10:39.019Z,21.53
2019-02-16T09:11:38.976Z,21.33
2019-02-16T09:12:38.932Z,21.43
2019-02-16T09:13:38.891Z,21.33
2019-02-16T09:14:38.845Z,21.24
2019-02-16T09:15:38.802Z,21.33
2019-02-16T09:16:38.760Z,21.33
2019-02-16T09:17:38.715Z,21.24
2019-02-16T09:18:38.672Z,21.24
2019-02-16T09:19:38.629Z,21.04
2019-02-16T09:20:38.583Z,21.24
2019-02-16T09:21:38.553Z,21.24
2019-02-16T09:22:38.499Z,21.43
2019-02-16T09:23:38.455Z,21.33
2019-02-16T09:24:38.411Z,21.53
2019-02-16T09:25:38.368Z,21.51
2019-02-16T09:26:38.356Z,21.62
2019-02-16T09:27:38.282Z,21.92
2019-02-16T09:28:38.238Z,22.10
2019-02-16T09:29:38.195Z,21.71
2019-02-16T09:30:38.151Z,22.00
2019-02-16T09:31:38.114Z,21.81
2019-02-16T09:32:38.065Z,21.91
2019-02-16T09:33:38.021Z,21.71
2019-02-16T09:34:37.978Z,21.71
2019-02-16T09:35:37.984Z,21.91
2019-02-16T09:36:37.891Z,21.71
2019-02-16T09:37:37.847Z,21.61
2019-02-16T09:38:37.804Z,21.61
2019-02-16T09:39:37.761Z,21.71
2019-02-16T09:40:37.717Z,21.81
2019-02-16T09:41:37.674Z,22.10
2019-02-16T09:42:37.631Z,21.71
2019-02-16T09:43:37.593Z,22.30
2019-02-16T09:44:37.542Z,22.10
2019-02-16T09:45:37.499Z,21.81
2019-02-16T09:46:37.456Z,22.00
2019-02-16T09:47:37.412Z,22.00
2019-02-16T09:48:37.368Z,22.00
2019-02-16T09:49:37.327Z,22.00
2019-02-16T09:50:37.282Z,22.20
2019-02-16T09:51:37.239Z,21.81
2019-02-16T09:52:37.194Z,21.81
2019-02-16T09:53:37.151Z,22.28
2019-02-16T09:54:37.108Z,22.10
2019-02-16T09:55:37.063Z,22.30
2019-02-16T09:56:37.024Z,22.30
2019-02-16T09:57:36.977Z,22.30
2019-02-16T09:58:36.983Z,22.10
2019-02-16T09:59:36.890Z,22.39
2019-02-16T10:00:36.846Z,22.30
2019-02-16T10:01:36.803Z,22.19
2019-02-16T10:02:36.759Z,22.19
2019-02-16T10:03:36.716Z,22.58
2019-02-16T10:04:36.678Z,22.20
2019-02-16T10:05:36.628Z,22.30
2019-02-16T10:06:36.585Z,22.68
2019-02-16T10:07:36.542Z,22.49
2019-02-16T10:08:36.497Z,22.19
2019-02-16T10:09:36.454Z,22.48
2019-02-16T10:10:36.414Z,22.39
2019-02-16T10:11:36.368Z,22.20
2019-02-16T10:12:36.323Z,22.68
2019-02-16T10:13:36.294Z,22.57
2019-02-16T10:14:36.236Z,22.19
2019-02-16T10:15:36.192Z,22.30
2019-02-16T10:16:36.148Z,22.30
2019-02-16T10:17:36.105Z,22.19
2019-02-16T10:18:36.060Z,22.19
2019-02-16T10:19:36.019Z,22.28
2019-02-16T10:20:35.977Z,22.09
2019-02-16T10:21:36.030Z,22.09
2019-02-16T10:22:35.892Z,22.19
2019-02-16T10:23:35.901Z,22.28
2019-02-16T10:24:35.798Z,22.19
2019-02-16T10:25:35.756Z,22.09
2019-02-16T10:26:35.712Z,22.09
2019-02-16T10:27:35.669Z,22.09
2019-02-16T10:28:35.625Z,22.09
2019-02-16T10:29:35.581Z,22.19
2019-02-16T10:30:35.538Z,22.09
2019-02-16T10:31:35.495Z,22.09
2019-02-16T10:32:35.450Z,22.09
2019-02-16T10:33:35.408Z,22.19
2019-02-16T10:34:35.363Z,22.19
2019-02-16T10:35:36.754Z,22.38
2019-02-16T10:36:35.275Z,22.38
2019-02-16T10:37:35.232Z,22.09
2019-02-16T10:38:35.187Z,22.19
2019-02-16T10:39:35.144Z,22.19
2019-02-16T10:40:35.099Z,21.89
2019-02-16T10:41:35.057Z,22.19
2019-02-16T10:42:35.014Z,22.38
2019-02-16T10:43:34.971Z,22.38
2019-02-16T10:44:34.975Z,22.38
2019-02-16T10:45:34.882Z,22.48
2019-02-16T10:46:34.838Z,22.28
2019-02-16T10:47:34.795Z,22.38
2019-02-16T10:48:34.749Z,22.57
2019-02-16T10:49:34.706Z,22.77
2019-02-16T10:50:34.662Z,22.38
2019-02-16T10:51:34.620Z,22.38
2019-02-16T10:52:34.588Z,22.48
2019-02-16T10:53:34.532Z,22.77
2019-02-16T10:54:34.488Z,22.67
2019-02-16T10:55:34.444Z,22.57
2019-02-16T10:56:34.413Z,22.48
2019-02-16T10:57:34.356Z,22.57
2019-02-16T10:58:34.321Z,22.48
2019-02-16T10:59:34.270Z,22.47
2019-02-16T11:00:34.225Z,22.57
2019-02-16T11:01:34.185Z,23.05
2019-02-16T11:02:34.138Z,22.96
2019-02-16T11:03:34.094Z,22.57
2019-02-16T11:04:38.285Z,23.05
2019-02-16T11:05:34.006Z,22.67
2019-02-16T11:06:33.963Z,22.47
2019-02-16T11:07:33.919Z,23.06
2019-02-16T11:08:33.876Z,23.06
2019-02-16T11:09:33.833Z,22.86
2019-02-16T11:10:33.787Z,22.96
2019-02-16T11:11:33.743Z,22.77
2019-02-16T11:12:33.700Z,22.85
2019-02-16T11:13:33.655Z,22.85
2019-02-16T11:14:33.612Z,22.56
2019-02-16T11:15:33.568Z,22.66
2019-02-16T11:16:33.524Z,22.56
2019-02-16T11:17:33.488Z,22.75
2019-02-16T11:18:33.436Z,22.47
2019-02-16T11:19:33.394Z,22.56
2019-02-16T11:20:33.350Z,22.56
2019-02-16T11:21:33.304Z,22.56
2019-02-16T11:22:33.262Z,22.75
2019-02-16T11:23:33.217Z,22.75
2019-02-16T11:24:36.108Z,22.66
2019-02-16T11:25:33.129Z,22.47
2019-02-16T11:26:33.085Z,22.56
2019-02-16T11:27:33.042Z,22.47
2019-02-16T11:28:32.997Z,22.56
2019-02-16T11:29:32.952Z,22.27
2019-02-16T11:30:32.910Z,22.27
2019-02-16T11:31:32.866Z,22.27
2019-02-16T11:32:32.822Z,22.37
2019-02-16T11:33:32.784Z,22.27
2019-02-16T11:34:32.734Z,22.56
2019-02-16T11:35:32.691Z,22.27
2019-02-16T11:36:32.647Z,22.37
2019-02-16T11:37:32.609Z,22.27
2019-02-16T11:38:32.558Z,22.47
2019-02-16T11:39:32.516Z,22.27
2019-02-16T11:40:32.471Z,22.37
2019-02-16T11:41:32.426Z,22.56
2019-02-16T11:42:32.383Z,22.66
2019-02-16T11:43:32.341Z,22.66
2019-02-16T11:44:32.297Z,22.85
2019-02-16T11:45:32.715Z,22.66
2019-02-16T11:46:32.206Z,22.85
2019-02-16T11:47:32.162Z,22.85
2019-02-16T11:48:32.119Z,22.85
2019-02-16T11:49:32.075Z,23.05
2019-02-16T11:50:32.031Z,22.95
2019-02-16T11:51:31.988Z,23.05
2019-02-16T11:52:31.993Z,23.05
2019-02-16T11:53:31.899Z,23.14
2019-02-16T11:54:31.858Z,23.05
2019-02-16T11:55:31.821Z,23.05
2019-02-16T11:56:31.767Z,22.95
2019-02-16T11:57:31.726Z,23.43
2019-02-16T11:58:31.680Z,22.85
2019-02-16T11:59:31.638Z,23.14
2019-02-16T12:00:31.591Z,22.85
2019-02-16T12:01:31.547Z,22.85
2019-02-16T12:02:39.498Z,23.05
2019-02-16T12:03:31.530Z,23.14
2019-02-16T12:04:31.428Z,23.33
2019-02-16T12:05:31.371Z,23.14
2019-02-16T12:06:31.326Z,23.24
2019-02-16T12:07:31.283Z,22.95
2019-02-16T12:08:31.238Z,22.95
2019-02-16T12:09:31.195Z,23.23
2019-02-16T12:10:31.156Z,23.14
2019-02-16T12:11:31.159Z,23.23
2019-02-16T12:12:31.066Z,22.84
2019-02-16T12:13:31.019Z,23.13
2019-02-16T12:14:30.975Z,23.13
2019-02-16T12:15:30.931Z,23.03
2019-02-16T12:16:30.887Z,23.13
2019-02-16T12:17:30.844Z,23.03
2019-02-16T12:18:30.799Z,23.05
2019-02-16T12:19:30.758Z,23.03
2019-02-16T12:20:33.707Z,23.13
2019-02-16T12:21:30.668Z,23.03
2019-02-16T12:22:30.624Z,23.14
2019-02-16T12:23:30.579Z,22.94
2019-02-16T12:24:30.535Z,23.03
2019-02-16T12:25:30.490Z,23.03
2019-02-16T12:26:30.446Z,23.03
2019-02-16T12:27:30.403Z,23.03
2019-02-16T12:28:30.358Z,23.03
2019-02-16T12:29:30.314Z,23.13
2019-02-16T12:30:30.272Z,23.03
2019-02-16T12:31:30.227Z,23.14
2019-02-16T12:32:30.182Z,23.03
2019-02-16T12:33:30.140Z,23.13
2019-02-16T12:34:30.097Z,23.13
2019-02-16T12:35:30.059Z,23.13
2019-02-16T12:36:30.104Z,23.03
2019-02-16T12:37:30.111Z,23.13
2019-02-16T12:38:30.117Z,23.13
2019-02-16T12:39:29.874Z,23.13
2019-02-16T12:40:29.835Z,23.03
2019-02-16T12:41:29.785Z,23.03
2019-02-16T12:42:29.741Z,23.13
2019-02-16T12:43:29.697Z,23.23
2019-02-16T12:44:29.653Z,23.33
2019-02-16T12:45:29.615Z,23.23
2019-02-16T12:46:29.564Z,23.42
2019-02-16T12:47:29.523Z,23.33
2019-02-16T12:48:29.475Z,23.33
2019-02-16T12:49:29.432Z,23.33
2019-02-16T12:50:29.390Z,23.33
2019-02-16T12:51:29.344Z,23.23